createdAt,value
2024-05-09T00:01:13.843Z,24.10
2024-05-09T00:03:43.969Z,24.38
2024-05-09T00:06:16.500Z,23.60
2024-05-09T00:08:46.468Z,23.34
2024-05-09T00:11:16.946Z,22.79
2024-05-09T00:13:46.351Z,22.14
2024-05-09T00:16:15.681Z,23.08
2024-05-09T00:18:44.975Z,23.17
2024-05-09T00:21:16.907Z,24.10
2024-05-09T00:23:46.154Z,24.46
2024-05-09T00:26:18.115Z,24.49
2024-05-09T00:28:47.428Z,25.10
2024-05-09T00:31:16.743Z,23.50
2024-05-09T00:33:46.061Z,23.90
2024-05-09T00:36:18.059Z,23.21
2024-05-09T00:38:47.683Z,22.86
2024-05-09T00:41:19.746Z,23.06
2024-05-09T00:43:49.361Z,23.62
2024-05-09T00:46:18.762Z,23.61
2024-05-09T00:48:48.129Z,23.82
2024-05-09T00:51:20.403Z,23.78
2024-05-09T00:53:50.158Z,22.16
2024-05-09T00:56:19.814Z,22.95
2024-05-09T00:58:49.889Z,22.67
2024-05-09T01:01:23.460Z,22.85
2024-05-09T01:03:53.375Z,21.92
2024-05-09T01:06:25.345Z,23.01
2024-05-09T01:08:54.711Z,22.22
2024-05-09T01:11:24.005Z,21.61
2024-05-09T01:13:53.352Z,22.82
2024-05-09T01:16:22.625Z,22.44
2024-05-09T01:18:52.007Z,22.78
2024-05-09T01:21:21.540Z,23.23
2024-05-09T01:23:53.461Z,22.60
2024-05-09T01:26:22.737Z,23.27
2024-05-09T01:28:52.028Z,23.46
2024-05-09T01:31:21.307Z,23.55
2024-05-09T01:33:50.615Z,23.77
2024-05-09T01:36:21.144Z,23.83
2024-05-09T01:38:52.946Z,23.91
2024-05-09T01:41:22.262Z,23.79
2024-05-09T01:43:51.469Z,23.83
2024-05-09T01:46:20.803Z,23.00
2024-05-09T01:48:50.091Z,22.98
2024-05-09T01:51:19.401Z,23.13
2024-05-09T01:53:48.634Z,22.72
2024-05-09T01:56:20.455Z,21.83
2024-05-09T01:58:49.674Z,21.40
2024-05-09T02:01:18.986Z,20.47
2024-05-09T02:03:49.325Z,21.72
2024-05-09T02:06:18.715Z,21.53
2024-05-09T02:08:48.646Z,22.51
2024-05-09T02:11:20.506Z,22.74
2024-05-09T02:13:49.738Z,23.21
2024-05-09T02:16:18.943Z,23.35
2024-05-09T02:18:48.186Z,23.56
2024-05-09T02:21:17.586Z,23.48
2024-05-09T02:23:46.826Z,23.39
2024-05-09T02:26:16.295Z,23.81
2024-05-09T02:28:48.096Z,22.92
2024-05-09T02:31:17.474Z,23.01
2024-05-09T02:33:44.311Z,23.14
2024-05-09T02:36:13.780Z,21.40
2024-05-09T02:38:40.455Z,22.17
2024-05-09T02:41:09.708Z,21.80
2024-05-09T02:43:36.366Z,22.06
2024-05-09T02:46:09.488Z,20.84
2024-05-09T02:48:36.307Z,20.74
2024-05-09T02:51:05.762Z,22.54
2024-05-09T02:53:32.621Z,22.45
2024-05-09T02:56:02.171Z,22.17
2024-05-09T02:58:28.814Z,21.97
2024-05-09T03:00:58.122Z,22.81
2024-05-09T03:03:27.720Z,23.46
2024-05-09T03:05:57.019Z,22.58
2024-05-09T03:08:23.749Z,22.19
2024-05-09T03:10:53.157Z,22.91
2024-05-09T03:13:19.817Z,22.93
2024-05-09T03:15:49.173Z,22.76
2024-05-09T03:18:18.553Z,21.31
2024-05-09T03:20:47.939Z,21.86
2024-05-09T03:23:17.459Z,20.84
2024-05-09T03:25:44.165Z,20.35
2024-05-09T03:28:13.903Z,21.75
2024-05-09T03:30:42.912Z,20.42
2024-05-09T03:33:15.210Z,21.99
2024-05-09T03:35:43.011Z,21.88
2024-05-09T03:38:15.006Z,22.05
2024-05-09T03:40:49.602Z,22.71
2024-05-09T03:43:20.549Z,22.56
2024-05-09T03:45:51.626Z,21.76
2024-05-09T03:48:18.544Z,22.35
2024-05-09T03:50:48.489Z,21.98
2024-05-09T03:53:17.887Z,22.61
2024-05-09T03:55:47.199Z,22.97
2024-05-09T03:58:14.582Z,22.72
2024-05-09T04:00:44.592Z,21.68
2024-05-09T04:03:12.835Z,22.74
2024-05-09T04:05:43.881Z,24.13
2024-05-09T04:08:11.581Z,23.66
2024-05-09T04:10:43.954Z,23.30
2024-05-09T04:13:11.073Z,22.76
2024-05-09T04:15:40.461Z,23.95
2024-05-09T04:18:07.434Z,25.45
2024-05-09T04:20:39.768Z,24.61
2024-05-09T04:23:10.759Z,23.71
2024-05-09T04:25:45.055Z,23.73
2024-05-09T04:28:12.618Z,23.66
2024-05-09T04:30:42.609Z,23.81
2024-05-09T04:33:12.304Z,23.55
2024-05-09T04:35:44.691Z,23.56
2024-05-09T04:38:12.240Z,23.49
2024-05-09T04:40:44.217Z,23.37
2024-05-09T04:43:14.676Z,23.15
2024-05-09T04:45:44.402Z,23.70
2024-05-09T04:48:11.582Z,23.81
2024-05-09T04:50:41.132Z,23.92
2024-05-09T04:53:10.181Z,23.48
2024-05-09T04:55:40.804Z,23.76
2024-05-09T04:58:13.836Z,23.28
2024-05-09T05:00:41.545Z,23.26
2024-05-09T05:03:15.004Z,23.23
2024-05-09T05:05:44.586Z,23.48
2024-05-09T05:08:15.682Z,22.58
2024-05-09T05:10:43.674Z,22.94
2024-05-09T05:13:20.796Z,22.69
2024-05-09T05:15:53.181Z,23.10
2024-05-09T05:18:20.267Z,23.20
2024-05-09T05:20:50.012Z,23.97
2024-05-09T05:23:19.695Z,22.93
2024-05-09T05:25:51.029Z,22.94
2024-05-09T05:28:20.645Z,23.29
2024-05-09T05:30:50.249Z,23.92
2024-05-09T05:33:18.786Z,23.23
2024-05-09T05:35:48.555Z,23.85
2024-05-09T05:38:17.986Z,22.52
2024-05-09T05:40:44.820Z,23.88
2024-05-09T05:43:19.167Z,24.99
2024-05-09T05:45:48.467Z,24.86
2024-05-09T05:48:21.105Z,24.20
2024-05-09T05:50:47.963Z,24.66
2024-05-09T05:53:17.334Z,25.21
2024-05-09T05:55:43.995Z,25.12
2024-05-09T05:58:14.760Z,25.44
2024-05-09T06:00:42.578Z,26.66
2024-05-09T06:03:15.265Z,26.25
2024-05-09T06:05:43.945Z,25.75
2024-05-09T06:08:14.674Z,25.36
2024-05-09T06:10:42.440Z,25.41
2024-05-09T06:13:12.468Z,25.11
2024-05-09T06:18:10.968Z,24.27
2024-05-09T06:20:43.338Z,24.77
2024-05-09T06:23:13.659Z,24.46
2024-05-09T06:25:40.711Z,24.59
2024-05-09T06:28:10.012Z,25.81
2024-05-09T06:30:40.457Z,25.27
2024-05-09T06:33:14.697Z,25.92
2024-05-09T06:35:46.313Z,25.26
2024-05-09T06:38:15.954Z,25.54
2024-05-09T06:40:44.052Z,24.50
2024-05-09T06:43:15.396Z,24.28
2024-05-09T06:45:43.730Z,24.38
2024-05-09T06:48:13.952Z,24.14
2024-05-09T06:50:41.275Z,25.41
2024-05-09T06:53:13.310Z,24.23
2024-05-09T06:55:40.436Z,24.91
2024-05-09T06:58:10.949Z,24.05
2024-05-09T07:00:40.222Z,24.28
2024-05-09T07:03:12.648Z,25.68
2024-05-09T07:05:40.876Z,24.91
2024-05-09T07:08:13.363Z,24.56
2024-05-09T07:10:40.134Z,24.15
2024-05-09T07:13:11.039Z,25.01
2024-05-09T07:15:38.013Z,24.57
2024-05-09T07:18:15.554Z,25.23
2024-05-09T07:20:43.063Z,25.14
2024-05-09T07:23:15.729Z,26.09
2024-05-09T07:25:43.130Z,26.39
2024-05-09T07:28:16.773Z,25.65
2024-05-09T07:30:44.166Z,26.24
2024-05-09T07:33:19.187Z,26.34
2024-05-09T07:35:46.523Z,26.92
2024-05-09T07:38:18.620Z,26.71
2024-05-09T07:40:45.585Z,26.62
2024-05-09T07:43:15.873Z,26.11
2024-05-09T07:45:51.123Z,25.73
2024-05-09T07:52:37.297Z,26.52
2024-05-09T07:53:49.923Z,26.35
2024-05-09T07:56:21.991Z,25.03
2024-05-09T07:58:53.650Z,23.85
2024-05-09T08:01:21.273Z,25.22
2024-05-09T08:03:50.905Z,25.93
2024-05-09T08:06:17.867Z,25.39
2024-05-09T08:08:50.781Z,27.22
2024-05-09T08:11:17.579Z,26.98
2024-05-09T08:13:46.810Z,26.76
2024-05-09T08:16:14.280Z,27.85
2024-05-09T08:18:43.777Z,27.18
2024-05-09T08:21:10.504Z,27.43
2024-05-09T08:23:39.759Z,26.44
2024-05-09T08:26:09.100Z,26.69
2024-05-09T08:28:38.341Z,27.49
2024-05-09T08:31:06.975Z,26.80
2024-05-09T08:33:37.059Z,26.96
2024-05-09T08:36:04.238Z,27.10
2024-05-09T08:38:33.434Z,25.50
2024-05-09T08:41:03.291Z,24.54
2024-05-09T08:43:36.177Z,26.57
2024-05-09T08:46:06.258Z,27.05
2024-05-09T08:48:39.241Z,27.71
2024-05-09T08:51:06.517Z,27.98
2024-05-09T08:53:35.947Z,28.27
2024-05-09T08:56:02.804Z,28.47
2024-05-09T08:58:35.170Z,27.41
2024-05-09T09:01:04.022Z,26.84
2024-05-09T09:03:35.909Z,27.30
2024-05-09T09:06:06.197Z,27.53
2024-05-09T09:08:35.809Z,27.70
2024-05-09T09:11:03.020Z,28.30
2024-05-09T09:13:34.984Z,27.84
2024-05-09T09:16:02.896Z,27.88
2024-05-09T09:18:33.165Z,27.75
2024-05-09T09:21:00.241Z,28.26
2024-05-09T09:23:30.637Z,27.97
2024-05-09T09:25:58.677Z,28.47
2024-05-09T09:28:28.102Z,27.70
2024-05-09T09:31:01.722Z,28.99
2024-05-09T09:33:32.061Z,28.67
2024-05-09T09:35:59.075Z,29.22
2024-05-09T09:38:33.234Z,28.16
2024-05-09T09:41:05.191Z,28.88
2024-05-09T09:43:35.509Z,28.99
2024-05-09T09:46:08.702Z,29.27
2024-05-09T09:48:41.250Z,29.05
2024-05-09T09:51:08.438Z,28.99
2024-05-09T09:53:39.989Z,28.72
2024-05-09T09:56:08.393Z,27.41
2024-05-09T09:58:38.806Z,29.10
2024-05-09T10:01:08.109Z,29.95
2024-05-09T10:03:37.610Z,30.14
2024-05-09T10:06:05.458Z,30.38
2024-05-09T10:08:34.893Z,29.11
2024-05-09T10:11:03.797Z,29.32
2024-05-09T10:13:37.023Z,29.06
2024-05-09T10:16:11.221Z,29.72
2024-05-09T10:18:41.666Z,30.15
2024-05-09T10:21:18.111Z,29.98
2024-05-09T10:23:59.348Z,28.71
2024-05-09T10:26:33.265Z,29.70
2024-05-09T10:29:03.530Z,29.14
2024-05-09T10:31:33.670Z,29.88
2024-05-09T10:34:03.625Z,29.99
2024-05-09T10:36:30.439Z,29.85
2024-05-09T10:38:59.692Z,28.85
2024-05-09T10:41:26.396Z,28.57
2024-05-09T10:43:55.615Z,29.64
2024-05-09T10:46:22.540Z,28.58
2024-05-09T10:48:54.722Z,27.64
2024-05-09T10:51:21.601Z,28.44
2024-05-09T10:53:52.532Z,28.61
2024-05-09T10:56:19.304Z,29.37
2024-05-09T10:58:48.525Z,29.12
2024-05-09T11:01:16.714Z,29.76
2024-05-09T11:03:49.771Z,28.66
2024-05-09T11:06:19.171Z,28.10
2024-05-09T11:08:49.110Z,29.76
2024-05-09T11:11:16.354Z,27.95
2024-05-09T11:13:45.651Z,27.44
2024-05-09T11:16:19.390Z,28.43
2024-05-09T11:18:56.580Z,27.33
2024-05-09T11:21:26.126Z,28.01
2024-05-09T11:23:55.613Z,28.54
2024-05-09T11:26:22.738Z,28.37
2024-05-09T11:28:52.638Z,29.75
2024-05-09T11:31:19.760Z,30.07
2024-05-09T11:33:49.348Z,29.96
2024-05-09T11:36:16.647Z,30.13
2024-05-09T11:38:48.503Z,29.91
2024-05-09T11:41:17.250Z,29.94
2024-05-09T11:43:46.589Z,30.23
2024-05-09T11:46:13.729Z,30.66
2024-05-09T11:48:43.392Z,30.44
2024-05-09T11:51:10.259Z,30.35
2024-05-09T11:53:39.481Z,30.36
2024-05-09T11:56:10.058Z,29.00
2024-05-09T11:58:39.580Z,30.59
2024-05-09T12:01:06.407Z,28.96
2024-05-09T12:03:38.015Z,28.77
2024-05-09T12:06:05.317Z,29.88
2024-05-09T12:08:34.757Z,28.73
2024-05-09T12:11:01.783Z,28.40
2024-05-09T12:13:33.667Z,30.09
2024-05-09T12:16:01.093Z,28.44
2024-05-09T12:18:30.464Z,27.73
2024-05-09T12:20:57.159Z,28.15
2024-05-09T12:23:26.368Z,28.14
2024-05-09T12:25:53.259Z,28.19
2024-05-09T12:28:23.360Z,28.84
2024-05-09T12:30:52.748Z,28.05
2024-05-09T12:33:22.444Z,27.35
2024-05-09T12:35:50.984Z,28.90
2024-05-09T12:38:20.906Z,28.53
2024-05-09T12:40:47.596Z,27.60
2024-05-09T12:43:16.980Z,29.08
2024-05-09T12:45:43.762Z,29.44
2024-05-09T12:48:15.799Z,28.81
2024-05-09T12:50:43.125Z,28.40
2024-05-09T12:53:12.659Z,29.31
2024-05-09T12:55:47.962Z,29.22
2024-05-09T12:58:24.182Z,29.02
2024-05-09T13:00:51.840Z,30.71
2024-05-09T13:03:24.241Z,30.77
2024-05-09T13:05:51.781Z,29.60
2024-05-09T13:08:22.137Z,31.70
2024-05-09T13:10:50.193Z,31.91
2024-05-09T13:13:19.868Z,31.01
2024-05-09T13:15:46.933Z,31.00
2024-05-09T13:18:16.657Z,30.55
2024-05-09T13:20:46.022Z,29.01
2024-05-09T13:23:15.277Z,29.26
2024-05-09T13:25:42.011Z,30.63
2024-05-09T13:28:11.447Z,31.24
2024-05-09T13:30:41.141Z,31.02
2024-05-09T13:33:12.976Z,31.01
2024-05-09T13:35:46.696Z,31.06
2024-05-09T13:38:22.392Z,30.19
2024-05-09T13:40:50.224Z,30.15
2024-05-09T13:43:21.807Z,30.17
2024-05-09T13:45:49.017Z,31.12
2024-05-09T13:48:19.654Z,31.26
2024-05-09T13:50:46.950Z,30.48
2024-05-09T13:53:16.319Z,31.34
2024-05-09T13:55:45.784Z,31.53
2024-05-09T13:58:15.461Z,31.17
2024-05-09T14:00:47.135Z,28.18
2024-05-09T14:03:20.311Z,28.19
2024-05-09T14:05:49.346Z,28.36
2024-05-09T14:08:20.094Z,29.98
2024-05-09T14:10:50.289Z,30.41
2024-05-09T14:13:20.118Z,31.15
2024-05-09T14:15:47.080Z,29.97
2024-05-09T14:18:16.657Z,31.04
2024-05-09T14:20:43.588Z,30.51
2024-05-09T14:23:13.026Z,31.20
2024-05-09T14:25:42.839Z,31.88
2024-05-09T14:28:15.845Z,31.95
2024-05-09T14:30:43.028Z,31.62
2024-05-09T14:33:12.586Z,31.18
2024-05-09T14:35:39.569Z,30.90
2024-05-09T14:38:09.936Z,30.28
2024-05-09T14:40:41.979Z,30.08
2024-05-09T14:43:16.595Z,30.02
2024-05-09T14:45:43.996Z,31.45
2024-05-09T14:48:14.804Z,31.48
2024-05-09T14:50:42.362Z,30.02
2024-05-09T14:53:13.541Z,29.92
2024-05-09T14:55:42.468Z,31.06
2024-05-09T14:58:13.673Z,31.55
2024-05-09T15:00:49.834Z,31.76
2024-05-09T15:03:21.572Z,31.92
2024-05-09T15:05:49.186Z,30.62
2024-05-09T15:08:19.763Z,30.99
2024-05-09T15:10:47.121Z,31.75
2024-05-09T15:13:17.330Z,32.14
2024-05-09T15:15:47.094Z,31.54
2024-05-09T15:18:16.919Z,31.86
2024-05-09T15:20:44.756Z,31.78
2024-05-09T15:23:14.203Z,31.23
2024-05-09T15:25:41.030Z,31.66
2024-05-09T15:28:10.397Z,30.64
2024-05-09T15:30:37.778Z,30.07
2024-05-09T15:33:09.984Z,30.71
2024-05-09T15:35:41.132Z,31.41
2024-05-09T15:38:11.278Z,31.37
2024-05-09T15:40:40.467Z,31.24
2024-05-09T15:43:11.874Z,31.05
2024-05-09T15:45:39.202Z,31.65
2024-05-09T15:48:12.573Z,32.16
2024-05-09T15:50:41.639Z,30.27
2024-05-09T15:53:13.211Z,29.62
2024-05-09T15:55:40.680Z,30.41
2024-05-09T15:58:10.457Z,31.13
2024-05-09T16:00:41.051Z,30.49
2024-05-09T16:03:15.996Z,31.58
2024-05-09T16:05:43.904Z,31.22
2024-05-09T16:08:14.409Z,30.79
2024-05-09T16:10:44.475Z,31.71
2024-05-09T16:13:14.998Z,31.57
2024-05-09T16:15:43.003Z,31.99
2024-05-09T16:18:15.205Z,30.68
2024-05-09T16:20:43.548Z,28.98
2024-05-09T16:23:14.392Z,29.19
2024-05-09T16:25:42.918Z,29.34
2024-05-09T16:28:12.208Z,29.86
2024-05-09T16:30:39.733Z,30.17
2024-05-09T16:33:10.823Z,30.21
2024-05-09T16:35:40.644Z,29.90
2024-05-09T16:38:10.101Z,30.44
2024-05-09T16:40:40.192Z,30.20
2024-05-09T16:43:11.344Z,29.81
2024-05-09T16:45:40.276Z,29.92
2024-05-09T16:48:11.226Z,29.99
2024-05-09T16:50:40.647Z,29.36
2024-05-09T16:53:09.916Z,28.84
2024-05-09T16:55:36.855Z,29.63
2024-05-09T16:58:08.045Z,29.88
2024-05-09T17:00:40.853Z,30.16
2024-05-09T17:03:16.507Z,30.52
2024-05-09T17:05:47.439Z,29.70
2024-05-09T17:08:18.525Z,29.65
2024-05-09T17:10:46.105Z,29.52
2024-05-09T17:13:15.550Z,30.67
2024-05-09T17:15:44.959Z,30.05
2024-05-09T17:18:11.820Z,28.91
2024-05-09T17:20:41.099Z,28.69
2024-05-09T17:23:13.930Z,28.79
2024-05-09T17:25:44.092Z,29.23
2024-05-09T17:28:11.604Z,28.90
2024-05-09T17:30:42.367Z,28.54
2024-05-09T17:33:11.037Z,28.57
2024-05-09T17:35:41.363Z,28.15
2024-05-09T17:38:10.641Z,28.03
2024-05-09T17:40:40.261Z,28.55
2024-05-09T17:43:08.961Z,29.04
2024-05-09T17:45:40.990Z,28.47
2024-05-09T17:48:10.228Z,28.43
2024-05-09T17:50:41.251Z,28.14
2024-05-09T17:53:11.484Z,28.10
2024-05-09T17:55:42.660Z,28.41
2024-05-09T17:58:10.349Z,28.78
2024-05-09T18:00:42.075Z,28.34
2024-05-09T18:03:12.030Z,28.50
2024-05-09T18:05:43.801Z,29.65
2024-05-09T18:08:14.066Z,29.29
2024-05-09T18:10:44.372Z,29.48
2024-05-09T18:13:12.291Z,29.23
2024-05-09T18:15:42.775Z,27.81
2024-05-09T18:18:10.722Z,28.36
2024-05-09T18:20:44.404Z,28.83
2024-05-09T18:23:17.829Z,28.96
2024-05-09T18:25:48.565Z,29.52
2024-05-09T18:28:16.239Z,29.86
2024-05-09T18:30:46.240Z,29.73
2024-05-09T18:33:13.481Z,29.84
2024-05-09T18:35:45.138Z,29.80
2024-05-09T18:38:12.133Z,29.83
2024-05-09T18:40:46.252Z,29.71
2024-05-09T18:43:15.252Z,30.11
2024-05-09T18:45:44.587Z,30.36
2024-05-09T18:48:11.735Z,29.81
2024-05-09T18:50:41.765Z,29.23
2024-05-09T18:53:09.908Z,29.56
2024-05-09T18:55:39.490Z,28.94
2024-05-09T18:58:08.813Z,28.81
2024-05-09T19:00:40.457Z,29.28
2024-05-09T19:03:12.364Z,29.17
2024-05-09T19:05:45.019Z,28.83
2024-05-09T19:08:12.938Z,28.65
2024-05-09T19:10:42.375Z,28.66
2024-05-09T19:13:13.583Z,27.93
2024-05-09T19:15:44.424Z,27.56
2024-05-09T19:18:12.608Z,27.83
2024-05-09T19:20:42.387Z,27.68
2024-05-09T19:23:10.860Z,28.58
2024-05-09T19:25:40.226Z,28.26
2024-05-09T19:28:07.212Z,28.76
2024-05-09T19:30:42.448Z,28.78
2024-05-09T19:33:12.350Z,28.17
2024-05-09T19:35:42.873Z,27.69
2024-05-09T19:38:10.938Z,27.53
2024-05-09T19:40:40.363Z,27.83
2024-05-09T19:43:07.371Z,27.78
2024-05-09T19:45:39.402Z,27.47
2024-05-09T19:48:07.186Z,26.87
2024-05-09T19:50:42.309Z,26.89
2024-05-09T19:53:11.701Z,26.27
2024-05-09T19:55:41.438Z,26.01
2024-05-09T19:58:08.791Z,26.48
2024-05-09T20:00:43.225Z,26.61
2024-05-09T20:03:11.946Z,26.81
2024-05-09T20:05:41.541Z,26.77
2024-05-09T20:08:08.312Z,26.71
2024-05-09T20:10:37.732Z,26.84
2024-05-09T20:13:06.687Z,26.22
2024-05-09T20:15:37.847Z,26.42
2024-05-09T20:18:10.363Z,26.79
2024-05-09T20:20:41.287Z,27.09
2024-05-09T20:23:13.250Z,27.48
2024-05-09T20:25:40.464Z,27.11
2024-05-09T20:28:10.571Z,25.95
2024-05-09T20:30:37.717Z,26.07
2024-05-09T20:33:10.718Z,26.51
2024-05-09T20:35:37.511Z,26.97
2024-05-09T20:38:07.100Z,27.86
2024-05-09T20:40:37.552Z,26.75
2024-05-09T20:43:08.870Z,27.83
2024-05-09T20:45:36.125Z,28.18
2024-05-09T20:48:05.974Z,28.66
2024-05-09T20:50:39.746Z,28.22
2024-05-09T20:53:13.200Z,28.04
2024-05-09T20:55:41.134Z,28.41
2024-05-09T20:58:10.888Z,27.12
2024-05-09T21:00:41.437Z,28.12
2024-05-09T21:03:14.869Z,28.06
2024-05-09T21:05:46.054Z,28.04
2024-05-09T21:08:15.647Z,28.72
2024-05-09T21:10:42.453Z,28.37
2024-05-09T21:13:11.956Z,28.43
2024-05-09T21:15:38.825Z,28.92
2024-05-09T21:18:08.298Z,27.57
2024-05-09T21:20:35.471Z,28.09
2024-05-09T21:23:07.900Z,28.75
2024-05-09T21:25:34.639Z,28.72
2024-05-09T21:28:04.004Z,28.49
2024-05-09T21:30:38.855Z,28.55
2024-05-09T21:33:13.441Z,28.47
2024-05-09T21:35:41.538Z,27.83
2024-05-09T21:38:13.926Z,27.82
2024-05-09T21:40:40.903Z,28.28
2024-05-09T21:43:10.272Z,28.55
2024-05-09T21:45:37.551Z,28.66
2024-05-09T21:48:08.103Z,28.76
2024-05-09T21:50:40.314Z,28.51
2024-05-09T21:53:14.264Z,28.29
2024-05-09T21:55:41.310Z,28.80
2024-05-09T21:58:10.696Z,28.77
2024-05-09T22:00:39.510Z,28.09
2024-05-09T22:03:10.608Z,27.66
2024-05-09T22:05:39.086Z,28.01
2024-05-09T22:08:09.679Z,28.19
2024-05-09T22:10:39.063Z,28.25
2024-05-09T22:13:09.010Z,28.09
2024-05-09T22:15:37.813Z,28.03
2024-05-09T22:18:09.970Z,27.99
2024-05-09T22:20:43.405Z,27.84
2024-05-09T22:23:13.235Z,28.24
2024-05-09T22:25:42.567Z,28.10
2024-05-09T22:28:11.891Z,28.18
2024-05-09T22:30:40.059Z,28.14
2024-05-09T22:33:11.838Z,28.45
2024-05-09T22:35:39.055Z,28.24
2024-05-09T22:38:08.621Z,28.04
2024-05-09T22:40:46.451Z,27.89
2024-05-09T22:43:24.521Z,27.86
2024-05-09T22:45:52.664Z,27.69
2024-05-09T22:48:23.379Z,27.63
2024-05-09T22:50:50.377Z,27.73
2024-05-09T22:53:19.681Z,27.61
2024-05-09T22:55:46.313Z,28.06
2024-05-09T22:58:15.683Z,27.58
2024-05-09T23:00:45.019Z,27.22
2024-05-09T23:03:15.827Z,27.56
2024-05-09T23:05:42.697Z,27.76
2024-05-09T23:08:12.729Z,27.81
2024-05-09T23:10:39.510Z,27.79
2024-05-09T23:13:09.417Z,27.63
2024-05-09T23:15:36.930Z,27.59
2024-05-09T23:18:09.686Z,27.68
2024-05-09T23:20:39.178Z,27.56
2024-05-09T23:23:11.058Z,27.47
2024-05-09T23:25:39.181Z,27.11
2024-05-09T23:28:08.736Z,27.64
2024-05-09T23:30:39.042Z,27.56
2024-05-09T23:33:14.540Z,27.91
2024-05-09T23:35:42.068Z,27.21
2024-05-09T23:38:11.724Z,27.16
2024-05-09T23:40:40.832Z,27.81
2024-05-09T23:43:12.310Z,27.71
2024-05-09T23:45:40.002Z,27.89
2024-05-09T23:48:12.718Z,27.81
2024-05-09T23:50:40.573Z,27.82
2024-05-09T23:53:11.119Z,26.97
2024-05-09T23:55:38.872Z,27.02
2024-05-09T23:58:08.802Z,26.94
